Euskara    
Meteorología y climatología de Navarra
Datos de la estación - Meteo Navarra

Estación de Isaba-Refugio Belagua GN

Altitud 1422 m.


Datos desde el 23/02/2021 hasta el 24/02/2021 en horario solar
Los datos son PROVISIONALES

Anterior Página 1 de 1 Siguiente Descargar: Formato para Excel 2000 o superior   Formato csv   Formato para OpenOffice Calc
Fecha Temperatura Humedad relativa Radiación global Insolación Precipitación Vel. viento 10 m Vel. viento 10 m Dir. viento 10 m
°C % W/m² s l/m² m/s km/h °
23/02/2021 0:00 2.0 90 0.0 0 0.0 1.0 3.7 20
23/02/2021 0:10 2.2 88 0.0 0 0.0 0.7 2.4 259
23/02/2021 0:20 2.4 86 0.0 0 0.0 0.9 3.3 312
23/02/2021 0:30 2.3 87 0.0 0 0.0 2.3 8.3 277
23/02/2021 0:40 2.2 88 0.0 0 0.0 1.8 6.6 289
23/02/2021 0:50 2.4 88 0.0 0 0.0 1.3 4.8 299
23/02/2021 1:00 2.4 86 0.0 0 0.0 1.2 4.3 344
23/02/2021 1:10 2.9 80 0.0 0 0.0 1.1 3.8 58
23/02/2021 1:20 3.1 78 0.0 0 0.0 0.7 2.6 84
23/02/2021 1:30 3.0 78 0.0 0 0.0 0.4 1.3 57
23/02/2021 1:40 3.2 78 0.0 0 0.0 0.9 3.2 293
23/02/2021 1:50 2.6 82 0.0 0 0.0 2.9 10.4 286
23/02/2021 2:00 2.5 84 0.0 0 0.0 1.9 6.7 299
23/02/2021 2:10 2.5 85 0.0 0 0.0 2.1 7.5 295
23/02/2021 2:20 2.5 84 0.0 0 0.0 2.0 7.1 324
23/02/2021 2:30 2.9 79 0.0 0 0.0 0.3 1.1 329
23/02/2021 2:40 3.0 78 0.0 0 0.0 1.0 3.6 292
23/02/2021 2:50 2.3 86 0.0 0 0.0 3.2 11.4 290
23/02/2021 3:00 2.1 89 0.0 0 0.0 2.0 7.1 289
23/02/2021 3:10 2.0 91 0.0 0 0.0 2.1 7.4 302
23/02/2021 3:20 2.1 91 0.0 0 0.0 1.6 5.8 335
23/02/2021 3:30 2.2 91 0.0 0 0.0 2.6 9.3 294
23/02/2021 3:40 2.3 91 0.0 0 0.0 2.1 7.5 294
23/02/2021 3:50 2.2 92 0.0 0 0.0 3.1 11.1 268
23/02/2021 4:00 2.1 94 0.0 0 0.0 4.3 15.3 261
23/02/2021 4:10 2.1 94 0.0 0 0.0 3.1 11.0 265
23/02/2021 4:20 1.9 95 0.0 0 0.0 3.3 11.8 258
23/02/2021 4:30 1.9 96 0.0 0 0.0 4.4 15.9 257
23/02/2021 4:40 1.9 96 0.0 0 0.0 3.0 10.9 272
23/02/2021 4:50 1.9 97 0.0 0 0.0 2.3 8.2 298
23/02/2021 5:00 2.0 96 0.0 0 0.0 3.5 12.6 270
23/02/2021 5:10 2.1 96 0.0 0 0.0 2.4 8.6 261
23/02/2021 5:20 2.1 96 0.0 0 0.0 3.3 11.7 271
23/02/2021 5:30 2.0 97 0.0 0 0.0 2.1 7.4 266
23/02/2021 5:40 2.1 98 0.0 0 0.0 1.7 6.2 296
23/02/2021 5:50 2.0 98 0.0 0 0.0 1.6 5.7 291
23/02/2021 6:00 2.1 99 0.0 0 0.0 2.3 8.4 265
23/02/2021 6:10 2.2 99 0.0 0 0.0 2.2 7.8 288
23/02/2021 6:20 2.3 99 0.0 0 0.0 3.0 10.7 280
23/02/2021 6:30 2.4 99 0.0 0 0.0 1.7 6.2 293
23/02/2021 6:40 2.5 99 0.0 0 0.0 2.1 7.4 233
23/02/2021 6:50 2.6 99 0.0 0 0.0 2.3 8.2 300
23/02/2021 7:00 2.8 98 0.0 0 0.0 3.8 13.5 265
23/02/2021 7:10 2.8 97 7.9 0 0.0 2.6 9.5 9
23/02/2021 7:20 2.9 97 19.3 0 0.0 2.9 10.6 270
23/02/2021 7:30 3.0 97 46.3 238 0.0 1.9 6.9 332
23/02/2021 7:40 3.0 97 81.1 460 0.0 2.5 9.1 299
23/02/2021 7:50 3.1 98 111.8 524 0.0 2.5 8.9 337
23/02/2021 8:00 3.2 97 132.5 480 0.0 2.7 9.9 341
23/02/2021 8:10 3.5 95 227.4 600 0.0 3.6 12.8 275
23/02/2021 8:20 4.0 92 273.1 600 0.0 8.5 30.6 267
23/02/2021 8:30 4.7 84 294.8 600 0.0 8.3 30.0 258
23/02/2021 8:40 4.9 85 378.6 600 0.0 2.7 9.6 213
23/02/2021 8:50 5.1 81 369.1 586 0.0 8.2 29.4 252
23/02/2021 9:00 5.6 77 434.0 600 0.0 6.6 23.9 230
23/02/2021 9:10 5.9 75 438.1 568 0.0 7.2 26.0 248
23/02/2021 9:20 5.2 82 422.6 586 0.0 7.3 26.2 245
23/02/2021 9:30 5.4 81 471.0 588 0.0 6.3 22.8 234
23/02/2021 9:40 5.6 79 433.4 508 0.0 5.1 18.3 226
23/02/2021 9:50 5.9 74 433.8 512 0.0 6.5 23.3 187
23/02/2021 10:00 6.0 74 387.2 396 0.0 4.7 16.8 195
23/02/2021 10:10 6.1 72 244.4 148 0.0 5.6 20.1 186
23/02/2021 10:20 6.2 72 419.4 406 0.0 6.1 21.9 194
23/02/2021 10:30 6.4 71 388.7 360 0.0 6.1 22.0 190
23/02/2021 10:40 6.5 71 489.2 438 0.0 5.0 17.9 198
23/02/2021 10:50 6.9 69 663.3 554 0.0 5.4 19.3 211
23/02/2021 11:00 7.3 67 660.4 554 0.0 5.8 20.8 183
23/02/2021 11:10 7.6 66 775.3 600 0.0 4.8 17.4 179
23/02/2021 11:20 7.5 65 782.6 586 0.0 6.5 23.4 203
23/02/2021 11:30 7.6 64 820.0 600 0.0 5.7 20.4 185
23/02/2021 11:40 7.9 61 809.0 598 0.0 7.0 25.1 189
23/02/2021 11:50 7.8 63 759.7 580 0.0 6.4 23.1 186
23/02/2021 12:00 7.9 63 807.0 592 0.0 6.1 22.0 182
23/02/2021 12:10 7.8 64 796.8 596 0.0 6.1 21.9 186
23/02/2021 12:20 8.0 63 801.0 600 0.0 5.4 19.5 196
23/02/2021 12:30 7.9 64 576.1 452 0.0 5.0 18.1 210
23/02/2021 12:40 7.8 63 664.4 542 0.0 5.1 18.5 183
23/02/2021 12:50 7.8 62 625.3 518 0.0 6.0 21.6 191
23/02/2021 13:00 7.8 61 579.7 444 0.0 6.6 23.9 188
23/02/2021 13:10 7.8 62 462.0 372 0.0 5.8 20.9 190
23/02/2021 13:20 7.8 60 452.6 394 0.0 6.0 21.5 187
23/02/2021 13:30 7.8 60 384.1 254 0.0 5.5 19.8 174
23/02/2021 13:40 7.7 60 312.9 194 0.0 6.2 22.5 164
23/02/2021 13:50 7.8 59 351.9 260 0.0 5.8 20.7 171
23/02/2021 14:00 7.8 58 397.6 320 0.0 7.0 25.2 187
23/02/2021 14:10 8.2 56 510.8 524 0.0 5.9 21.1 179
23/02/2021 14:20 8.3 56 516.6 546 0.0 6.6 23.8 177
23/02/2021 14:30 8.4 54 479.4 494 0.0 4.9 17.5 172
23/02/2021 14:40 8.6 53 497.8 566 0.0 5.3 19.1 182
23/02/2021 14:50 8.8 54 491.0 576 0.0 4.9 17.7 177
23/02/2021 15:00 8.7 53 482.2 578 0.0 5.4 19.5 182
23/02/2021 15:10 8.9 52 484.0 600 0.0 4.6 16.4 168
23/02/2021 15:20 9.0 53 451.4 600 0.0 4.6 16.6 183
23/02/2021 15:30 8.9 52 422.0 600 0.0 5.9 21.3 173
23/02/2021 15:40 8.9 51 392.3 600 0.0 5.1 18.5 187
23/02/2021 15:50 8.9 52 348.1 596 0.0 5.1 18.4 175
23/02/2021 16:00 8.9 52 318.1 600 0.0 5.0 18.0 180
23/02/2021 16:10 8.8 53 275.5 584 0.0 4.9 17.6 175
23/02/2021 16:20 8.6 54 233.9 598 0.0 4.9 17.7 188
23/02/2021 16:30 8.5 55 196.1 596 0.0 5.0 18.1 184
23/02/2021 16:40 8.4 55 161.7 588 0.0 3.4 12.4 204
23/02/2021 16:50 8.2 57 132.2 600 0.0 4.1 14.8 206
23/02/2021 17:00 7.7 64 99.6 600 0.0 3.6 12.9 207
23/02/2021 17:10 7.5 66 70.7 600 0.0 3.8 13.8 247
23/02/2021 17:20 7.3 66 46.7 600 0.0 4.3 15.4 243
23/02/2021 17:30 7.0 68 23.9 132 0.0 4.0 14.2 247
23/02/2021 17:40 6.8 69 6.3 0 0.0 3.7 13.4 253
23/02/2021 17:50 6.7 69 0.0 0 0.0 4.0 14.4 255
23/02/2021 18:00 6.7 67 0.0 0 0.0 3.1 11.1 268
23/02/2021 18:10 6.6 68 0.0 0 0.0 2.7 9.7 260
23/02/2021 18:20 6.6 66 0.0 0 0.0 2.4 8.5 271
23/02/2021 18:30 6.7 66 0.0 0 0.0 2.5 8.9 281
23/02/2021 18:40 6.7 64 0.0 0 0.0 3.7 13.4 266
23/02/2021 18:50 7.0 60 0.0 0 0.0 2.9 10.3 243
23/02/2021 19:00 7.8 53 0.0 0 0.0 3.7 13.2 219
23/02/2021 19:10 7.7 54 0.0 0 0.0 2.2 8.0 227
23/02/2021 19:20 8.0 52 0.0 0 0.0 3.8 13.5 228
23/02/2021 19:30 7.9 54 0.0 0 0.0 4.8 17.4 241
23/02/2021 19:40 7.5 59 0.0 0 0.0 3.6 12.9 265
23/02/2021 19:50 7.5 57 0.0 0 0.0 2.8 10.2 233
23/02/2021 20:00 7.6 56 0.0 0 0.0 2.9 10.4 243
23/02/2021 20:10 8.0 53 0.0 0 0.0 4.1 14.8 239
23/02/2021 20:20 8.1 53 0.0 0 0.0 3.6 13.0 232
23/02/2021 20:30 7.9 55 0.0 0 0.0 3.1 11.2 245
23/02/2021 20:40 7.1 62 0.0 0 0.0 4.2 15.1 268
23/02/2021 20:50 7.1 62 0.0 0 0.0 2.5 9.0 256
23/02/2021 21:00 7.2 60 0.0 0 0.0 2.8 9.9 212
23/02/2021 21:10 7.2 61 0.0 0 0.0 4.1 14.8 259
23/02/2021 21:20 7.0 64 0.0 0 0.0 3.7 13.4 270
23/02/2021 21:30 7.3 60 0.0 0 0.0 4.1 14.8 248
23/02/2021 21:40 7.7 58 0.0 0 0.0 4.9 17.7 236
23/02/2021 21:50 7.6 60 0.0 0 0.0 5.2 18.7 250
23/02/2021 22:00 8.1 56 0.0 0 0.0 5.0 17.9 225
23/02/2021 22:10 7.9 58 0.0 0 0.0 5.3 19.2 226
23/02/2021 22:20 7.9 58 0.0 0 0.0 2.9 10.6 243
23/02/2021 22:30 7.5 61 0.0 0 0.0 3.9 13.9 255
23/02/2021 22:40 7.6 61 0.0 0 0.0 4.9 17.6 234
23/02/2021 22:50 7.4 63 0.0 0 0.0 4.3 15.6 245
23/02/2021 23:00 7.2 63 0.0 0 0.0 5.6 20.2 240
23/02/2021 23:10 7.2 65 0.0 0 0.0 4.6 16.4 258
23/02/2021 23:20 6.6 69 0.0 0 0.0 5.6 20.0 261
23/02/2021 23:30 6.6 69 0.0 0 0.0 6.1 21.9 267
23/02/2021 23:40 6.4 70 0.0 0 0.0 4.4 16.0 268
23/02/2021 23:50 6.6 69 0.0 0 0.0 4.6 16.6 269
Anterior Página 1 de 1 Siguiente

NOTA: Tipo de datos según el color:
   - Valores diarios o 10 minutos correctos
   - Valores diarios calculados a partir de un número de datos 10 minutos menor que 144 y mayor que 120, o de un número de datos semihorarios menor que 48 y mayor que 40 (caso de las estaciones de INTIA Y Ministerio)
   - Valores diez minutos estimados


Contacto        Enlaces        Aviso legal